sensor_id;sensor_type;location;lat;lon;timestamp;P1;durP1;ratioP1;P2;durP2;ratioP2
78778;SDS011;68121;52.404;5.318;2023-05-10T00:00:43;21.35;;;10.98;;
78778;SDS011;68121;52.404;5.318;2023-05-10T00:03:09;26.40;;;12.00;;
78778;SDS011;68121;52.404;5.318;2023-05-10T00:05:35;27.73;;;13.55;;
78778;SDS011;68121;52.404;5.318;2023-05-10T00:08:01;26.83;;;13.20;;
78778;SDS011;68121;52.404;5.318;2023-05-10T00:10:27;25.50;;;13.07;;
78778;SDS011;68121;52.404;5.318;2023-05-10T00:12:53;27.90;;;12.57;;
78778;SDS011;68121;52.404;5.318;2023-05-10T00:15:19;28.45;;;12.45;;
78778;SDS011;68121;52.404;5.318;2023-05-10T00:17:45;25.58;;;13.02;;
78778;SDS011;68121;52.404;5.318;2023-05-10T00:20:11;25.33;;;12.15;;
78778;SDS011;68121;52.404;5.318;2023-05-10T00:22:37;23.02;;;11.98;;
78778;SDS011;68121;52.404;5.318;2023-05-10T00:25:04;22.33;;;9.38;;
78778;SDS011;68121;52.404;5.318;2023-05-10T00:27:30;26.17;;;12.65;;
78778;SDS011;68121;52.404;5.318;2023-05-10T00:29:56;23.35;;;11.57;;
78778;SDS011;68121;52.404;5.318;2023-05-10T00:32:24;24.95;;;13.13;;
78778;SDS011;68121;52.404;5.318;2023-05-10T00:34:50;27.52;;;13.63;;
78778;SDS011;68121;52.404;5.318;2023-05-10T00:37:16;25.23;;;12.73;;
78778;SDS011;68121;52.404;5.318;2023-05-10T00:39:42;27.23;;;13.90;;
78778;SDS011;68121;52.404;5.318;2023-05-10T00:42:08;33.78;;;14.82;;
78778;SDS011;68121;52.404;5.318;2023-05-10T00:44:34;28.38;;;14.20;;
78778;SDS011;68121;52.404;5.318;2023-05-10T00:47:00;25.40;;;13.07;;
78778;SDS011;68121;52.404;5.318;2023-05-10T00:49:26;26.60;;;12.82;;
78778;SDS011;68121;52.404;5.318;2023-05-10T00:51:53;29.20;;;13.60;;
78778;SDS011;68121;52.404;5.318;2023-05-10T00:54:19;30.27;;;13.40;;
78778;SDS011;68121;52.404;5.318;2023-05-10T00:56:46;34.92;;;15.45;;
78778;SDS011;68121;52.404;5.318;2023-05-10T00:59:15;30.42;;;13.73;;
78778;SDS011;68121;52.404;5.318;2023-05-10T01:01:42;27.23;;;14.25;;
78778;SDS011;68121;52.404;5.318;2023-05-10T01:04:10;32.90;;;16.08;;
78778;SDS011;68121;52.404;5.318;2023-05-10T01:06:41;31.70;;;14.63;;
78778;SDS011;68121;52.404;5.318;2023-05-10T01:09:08;32.47;;;14.80;;
78778;SDS011;68121;52.404;5.318;2023-05-10T01:11:35;30.30;;;13.90;;
78778;SDS011;68121;52.404;5.318;2023-05-10T01:14:03;31.73;;;13.93;;
78778;SDS011;68121;52.404;5.318;2023-05-10T01:16:35;35.13;;;15.65;;
78778;SDS011;68121;52.404;5.318;2023-05-10T01:19:04;39.90;;;17.48;;
78778;SDS011;68121;52.404;5.318;2023-05-10T01:32:41;33.20;;;15.55;;
78778;SDS011;68121;52.404;5.318;2023-05-10T01:40:52;42.13;;;18.77;;
78778;SDS011;68121;52.404;5.318;2023-05-10T01:43:22;48.60;;;20.48;;
78778;SDS011;68121;52.404;5.318;2023-05-10T01:46:07;38.58;;;18.00;;
78778;SDS011;68121;52.404;5.318;2023-05-10T01:48:40;44.85;;;21.25;;
78778;SDS011;68121;52.404;5.318;2023-05-10T01:51:13;39.47;;;18.92;;
78778;SDS011;68121;52.404;5.318;2023-05-10T01:53:42;39.47;;;18.83;;
78778;SDS011;68121;52.404;5.318;2023-05-10T01:56:11;48.15;;;20.88;;
78778;SDS011;68121;52.404;5.318;2023-05-10T01:58:39;40.72;;;18.08;;
78778;SDS011;68121;52.404;5.318;2023-05-10T02:01:07;46.10;;;20.23;;
78778;SDS011;68121;52.404;5.318;2023-05-10T02:03:35;46.78;;;20.35;;
78778;SDS011;68121;52.404;5.318;2023-05-10T02:06:03;50.00;;;20.65;;
78778;SDS011;68121;52.404;5.318;2023-05-10T02:08:31;47.88;;;22.73;;
78778;SDS011;68121;52.404;5.318;2023-05-10T02:10:59;49.88;;;23.08;;
78778;SDS011;68121;52.404;5.318;2023-05-10T02:13:25;46.75;;;22.27;;
78778;SDS011;68121;52.404;5.318;2023-05-10T02:15:54;47.75;;;22.17;;
78778;SDS011;68121;52.404;5.318;2023-05-10T02:18:22;47.10;;;20.65;;
78778;SDS011;68121;52.404;5.318;2023-05-10T02:20:51;47.85;;;21.55;;
78778;SDS011;68121;52.404;5.318;2023-05-10T02:23:19;47.42;;;20.80;;
78778;SDS011;68121;52.404;5.318;2023-05-10T02:25:46;46.30;;;21.45;;
78778;SDS011;68121;52.404;5.318;2023-05-10T02:28:15;47.78;;;23.67;;
78778;SDS011;68121;52.404;5.318;2023-05-10T02:30:42;46.88;;;22.42;;
78778;SDS011;68121;52.404;5.318;2023-05-10T02:33:08;51.85;;;22.88;;
78778;SDS011;68121;52.404;5.318;2023-05-10T02:35:35;52.10;;;23.42;;
78778;SDS011;68121;52.404;5.318;2023-05-10T02:38:03;50.10;;;22.02;;
78778;SDS011;68121;52.404;5.318;2023-05-10T02:40:31;52.13;;;23.25;;
78778;SDS011;68121;52.404;5.318;2023-05-10T02:42:59;54.58;;;24.35;;
78778;SDS011;68121;52.404;5.318;2023-05-10T02:45:29;44.88;;;21.05;;
78778;SDS011;68121;52.404;5.318;2023-05-10T02:47:58;45.58;;;21.42;;
78778;SDS011;68121;52.404;5.318;2023-05-10T02:50:25;56.38;;;25.40;;
78778;SDS011;68121;52.404;5.318;2023-05-10T02:52:54;55.65;;;25.75;;
78778;SDS011;68121;52.404;5.318;2023-05-10T02:55:25;48.90;;;22.48;;
78778;SDS011;68121;52.404;5.318;2023-05-10T02:58:01;57.88;;;24.65;;
78778;SDS011;68121;52.404;5.318;2023-05-10T03:00:27;52.20;;;23.33;;
78778;SDS011;68121;52.404;5.318;2023-05-10T03:02:54;52.42;;;25.08;;
78778;SDS011;68121;52.404;5.318;2023-05-10T03:05:20;44.88;;;21.83;;
78778;SDS011;68121;52.404;5.318;2023-05-10T03:07:46;47.65;;;24.77;;
78778;SDS011;68121;52.404;5.318;2023-05-10T03:10:13;56.60;;;25.27;;
78778;SDS011;68121;52.404;5.318;2023-05-10T03:18:09;50.08;;;24.95;;
78778;SDS011;68121;52.404;5.318;2023-05-10T03:20:42;49.53;;;24.52;;
78778;SDS011;68121;52.404;5.318;2023-05-10T03:26:00;44.75;;;23.10;;
78778;SDS011;68121;52.404;5.318;2023-05-10T03:28:28;50.53;;;23.70;;
78778;SDS011;68121;52.404;5.318;2023-05-10T03:30:56;58.20;;;26.40;;
78778;SDS011;68121;52.404;5.318;2023-05-10T03:33:24;53.10;;;24.83;;
78778;SDS011;68121;52.404;5.318;2023-05-10T03:35:50;59.58;;;26.25;;
78778;SDS011;68121;52.404;5.318;2023-05-10T03:38:17;56.28;;;26.63;;
78778;SDS011;68121;52.404;5.318;2023-05-10T03:40:43;59.83;;;26.73;;
78778;SDS011;68121;52.404;5.318;2023-05-10T03:43:09;63.85;;;24.92;;
78778;SDS011;68121;52.404;5.318;2023-05-10T03:45:35;62.25;;;26.80;;
78778;SDS011;68121;52.404;5.318;2023-05-10T03:48:01;58.65;;;25.48;;
78778;SDS011;68121;52.404;5.318;2023-05-10T03:50:27;50.08;;;23.45;;
78778;SDS011;68121;52.404;5.318;2023-05-10T03:52:53;63.65;;;27.00;;
78778;SDS011;68121;52.404;5.318;2023-05-10T03:55:19;58.60;;;24.80;;
78778;SDS011;68121;52.404;5.318;2023-05-10T03:57:45;57.53;;;25.60;;
78778;SDS011;68121;52.404;5.318;2023-05-10T04:00:12;59.47;;;25.48;;
78778;SDS011;68121;52.404;5.318;2023-05-10T04:02:38;55.60;;;24.38;;
78778;SDS011;68121;52.404;5.318;2023-05-10T04:05:04;59.88;;;23.70;;
78778;SDS011;68121;52.404;5.318;2023-05-10T04:07:30;61.90;;;24.98;;
78778;SDS011;68121;52.404;5.318;2023-05-10T04:09:56;61.58;;;25.63;;
78778;SDS011;68121;52.404;5.318;2023-05-10T04:12:22;56.97;;;24.08;;
78778;SDS011;68121;52.404;5.318;2023-05-10T04:14:49;47.13;;;21.48;;
78778;SDS011;68121;52.404;5.318;2023-05-10T04:17:16;49.58;;;21.50;;
78778;SDS011;68121;52.404;5.318;2023-05-10T04:19:42;43.08;;;18.42;;
78778;SDS011;68121;52.404;5.318;2023-05-10T04:22:08;39.72;;;19.08;;
78778;SDS011;68121;52.404;5.318;2023-05-10T04:24:34;44.83;;;18.30;;
78778;SDS011;68121;52.404;5.318;2023-05-10T04:27:00;43.55;;;18.58;;
78778;SDS011;68121;52.404;5.318;2023-05-10T04:29:26;44.85;;;18.60;;
78778;SDS011;68121;52.404;5.318;2023-05-10T04:31:52;38.88;;;18.48;;
78778;SDS011;68121;52.404;5.318;2023-05-10T04:34:20;37.75;;;18.20;;
78778;SDS011;68121;52.404;5.318;2023-05-10T04:36:46;41.70;;;16.88;;
78778;SDS011;68121;52.404;5.318;2023-05-10T04:39:12;37.28;;;15.52;;
78778;SDS011;68121;52.404;5.318;2023-05-10T04:41:39;33.58;;;14.60;;
78778;SDS011;68121;52.404;5.318;2023-05-10T04:44:05;32.22;;;14.82;;
78778;SDS011;68121;52.404;5.318;2023-05-10T04:46:31;35.17;;;16.20;;
78778;SDS011;68121;52.404;5.318;2023-05-10T04:48:58;33.85;;;14.00;;
78778;SDS011;68121;52.404;5.318;2023-05-10T04:51:24;28.48;;;12.00;;
78778;SDS011;68121;52.404;5.318;2023-05-10T04:53:50;13.50;;;7.30;;
78778;SDS011;68121;52.404;5.318;2023-05-10T04:56:16;24.25;;;12.23;;
78778;SDS011;68121;52.404;5.318;2023-05-10T04:58:42;24.02;;;11.05;;
78778;SDS011;68121;52.404;5.318;2023-05-10T05:01:08;23.75;;;10.88;;
78778;SDS011;68121;52.404;5.318;2023-05-10T05:03:36;23.15;;;10.63;;
78778;SDS011;68121;52.404;5.318;2023-05-10T05:06:02;22.35;;;10.63;;
78778;SDS011;68121;52.404;5.318;2023-05-10T05:08:29;24.42;;;10.52;;
78778;SDS011;68121;52.404;5.318;2023-05-10T05:10:55;19.35;;;9.55;;
78778;SDS011;68121;52.404;5.318;2023-05-10T05:13:21;26.27;;;10.48;;
78778;SDS011;68121;52.404;5.318;2023-05-10T05:15:47;20.13;;;9.60;;
78778;SDS011;68121;52.404;5.318;2023-05-10T05:18:13;22.23;;;9.90;;
78778;SDS011;68121;52.404;5.318;2023-05-10T05:20:39;20.45;;;9.00;;
78778;SDS011;68121;52.404;5.318;2023-05-10T05:23:05;18.60;;;7.80;;
78778;SDS011;68121;52.404;5.318;2023-05-10T05:25:31;16.25;;;7.63;;
78778;SDS011;68121;52.404;5.318;2023-05-10T05:27:58;15.70;;;7.95;;
78778;SDS011;68121;52.404;5.318;2023-05-10T05:30:24;17.10;;;8.57;;
78778;SDS011;68121;52.404;5.318;2023-05-10T05:32:50;17.63;;;7.63;;
78778;SDS011;68121;52.404;5.318;2023-05-10T05:35:16;15.75;;;7.18;;
78778;SDS011;68121;52.404;5.318;2023-05-10T05:37:42;16.48;;;7.15;;
78778;SDS011;68121;52.404;5.318;2023-05-10T05:40:08;13.40;;;7.65;;
78778;SDS011;68121;52.404;5.318;2023-05-10T05:42:37;12.88;;;6.38;;
78778;SDS011;68121;52.404;5.318;2023-05-10T05:45:04;14.75;;;7.30;;
78778;SDS011;68121;52.404;5.318;2023-05-10T05:47:30;14.63;;;6.85;;
78778;SDS011;68121;52.404;5.318;2023-05-10T05:49:56;16.48;;;8.05;;
78778;SDS011;68121;52.404;5.318;2023-05-10T05:52:22;13.68;;;6.57;;
78778;SDS011;68121;52.404;5.318;2023-05-10T05:54:48;15.40;;;7.72;;
78778;SDS011;68121;52.404;5.318;2023-05-10T05:57:14;14.10;;;6.63;;
78778;SDS011;68121;52.404;5.318;2023-05-10T05:59:41;13.18;;;6.32;;
78778;SDS011;68121;52.404;5.318;2023-05-10T06:02:09;19.67;;;8.63;;
78778;SDS011;68121;52.404;5.318;2023-05-10T06:04:35;16.65;;;6.85;;
78778;SDS011;68121;52.404;5.318;2023-05-10T06:07:02;13.00;;;6.88;;
78778;SDS011;68121;52.404;5.318;2023-05-10T06:09:28;13.57;;;6.93;;
78778;SDS011;68121;52.404;5.318;2023-05-10T06:11:54;16.20;;;7.60;;
78778;SDS011;68121;52.404;5.318;2023-05-10T06:14:20;14.73;;;7.22;;
78778;SDS011;68121;52.404;5.318;2023-05-10T06:16:46;16.05;;;7.38;;
78778;SDS011;68121;52.404;5.318;2023-05-10T06:19:12;15.50;;;7.60;;
78778;SDS011;68121;52.404;5.318;2023-05-10T06:21:38;15.23;;;7.35;;
78778;SDS011;68121;52.404;5.318;2023-05-10T06:24:05;16.33;;;8.18;;
78778;SDS011;68121;52.404;5.318;2023-05-10T06:26:32;14.13;;;6.90;;
78778;SDS011;68121;52.404;5.318;2023-05-10T06:28:58;13.57;;;7.57;;
78778;SDS011;68121;52.404;5.318;2023-05-10T06:31:24;12.13;;;6.55;;
78778;SDS011;68121;52.404;5.318;2023-05-10T06:33:51;13.23;;;7.38;;
78778;SDS011;68121;52.404;5.318;2023-05-10T06:36:17;13.70;;;6.95;;
78778;SDS011;68121;52.404;5.318;2023-05-10T06:38:43;13.65;;;7.30;;
78778;SDS011;68121;52.404;5.318;2023-05-10T06:41:09;14.05;;;7.45;;
78778;SDS011;68121;52.404;5.318;2023-05-10T06:43:35;13.95;;;7.25;;
78778;SDS011;68121;52.404;5.318;2023-05-10T06:46:02;14.00;;;7.32;;
78778;SDS011;68121;52.404;5.318;2023-05-10T06:48:28;12.20;;;6.68;;
78778;SDS011;68121;52.404;5.318;2023-05-10T06:50:55;14.90;;;7.05;;
78778;SDS011;68121;52.404;5.318;2023-05-10T06:53:21;15.65;;;7.00;;
78778;SDS011;68121;52.404;5.318;2023-05-10T06:55:48;13.82;;;7.30;;
78778;SDS011;68121;52.404;5.318;2023-05-10T06:58:14;12.68;;;6.15;;
78778;SDS011;68121;52.404;5.318;2023-05-10T07:00:41;15.95;;;7.60;;
78778;SDS011;68121;52.404;5.318;2023-05-10T07:03:12;14.88;;;7.13;;
78778;SDS011;68121;52.404;5.318;2023-05-10T07:05:38;16.75;;;7.80;;
78778;SDS011;68121;52.404;5.318;2023-05-10T07:08:04;13.25;;;6.57;;
78778;SDS011;68121;52.404;5.318;2023-05-10T07:10:30;15.30;;;7.43;;
78778;SDS011;68121;52.404;5.318;2023-05-10T07:12:56;12.35;;;7.13;;
78778;SDS011;68121;52.404;5.318;2023-05-10T07:15:22;15.20;;;6.93;;
78778;SDS011;68121;52.404;5.318;2023-05-10T07:17:48;16.73;;;7.65;;
78778;SDS011;68121;52.404;5.318;2023-05-10T07:20:14;13.73;;;6.32;;
78778;SDS011;68121;52.404;5.318;2023-05-10T07:22:40;14.90;;;7.28;;
78778;SDS011;68121;52.404;5.318;2023-05-10T07:25:06;12.63;;;6.25;;
78778;SDS011;68121;52.404;5.318;2023-05-10T07:27:33;15.50;;;6.40;;
78778;SDS011;68121;52.404;5.318;2023-05-10T07:29:59;11.73;;;6.72;;
78778;SDS011;68121;52.404;5.318;2023-05-10T07:32:25;11.68;;;5.95;;
78778;SDS011;68121;52.404;5.318;2023-05-10T07:34:51;11.15;;;6.90;;
78778;SDS011;68121;52.404;5.318;2023-05-10T07:37:17;11.43;;;6.43;;
78778;SDS011;68121;52.404;5.318;2023-05-10T07:39:45;12.85;;;5.80;;
78778;SDS011;68121;52.404;5.318;2023-05-10T07:42:11;12.35;;;5.78;;
78778;SDS011;68121;52.404;5.318;2023-05-10T07:44:37;10.38;;;5.30;;
78778;SDS011;68121;52.404;5.318;2023-05-10T07:47:03;14.77;;;5.65;;
78778;SDS011;68121;52.404;5.318;2023-05-10T07:49:29;12.68;;;6.10;;
78778;SDS011;68121;52.404;5.318;2023-05-10T07:51:55;8.77;;;5.13;;
78778;SDS011;68121;52.404;5.318;2023-05-10T07:54:21;12.35;;;5.78;;
78778;SDS011;68121;52.404;5.318;2023-05-10T07:56:47;9.15;;;4.57;;
78778;SDS011;68121;52.404;5.318;2023-05-10T07:59:16;12.70;;;6.10;;
78778;SDS011;68121;52.404;5.318;2023-05-10T08:01:43;10.15;;;5.68;;
78778;SDS011;68121;52.404;5.318;2023-05-10T08:04:09;9.90;;;5.40;;
78778;SDS011;68121;52.404;5.318;2023-05-10T08:06:36;10.45;;;5.53;;
78778;SDS011;68121;52.404;5.318;2023-05-10T08:09:02;10.75;;;5.90;;
78778;SDS011;68121;52.404;5.318;2023-05-10T08:11:28;10.93;;;5.65;;
78778;SDS011;68121;52.404;5.318;2023-05-10T08:13:55;12.23;;;5.80;;
78778;SDS011;68121;52.404;5.318;2023-05-10T08:16:21;9.48;;;4.90;;
78778;SDS011;68121;52.404;5.318;2023-05-10T08:18:47;11.13;;;5.43;;
78778;SDS011;68121;52.404;5.318;2023-05-10T08:21:14;10.57;;;5.53;;
78778;SDS011;68121;52.404;5.318;2023-05-10T08:23:41;9.85;;;4.90;;
78778;SDS011;68121;52.404;5.318;2023-05-10T08:26:09;11.70;;;5.45;;
78778;SDS011;68121;52.404;5.318;2023-05-10T08:28:35;11.20;;;5.40;;
78778;SDS011;68121;52.404;5.318;2023-05-10T08:31:01;8.38;;;5.35;;
78778;SDS011;68121;52.404;5.318;2023-05-10T08:33:27;11.88;;;5.88;;
78778;SDS011;68121;52.404;5.318;2023-05-10T08:35:53;9.38;;;5.53;;
78778;SDS011;68121;52.404;5.318;2023-05-10T08:38:19;13.05;;;6.50;;
78778;SDS011;68121;52.404;5.318;2023-05-10T08:40:45;10.63;;;5.63;;
78778;SDS011;68121;52.404;5.318;2023-05-10T08:43:13;10.98;;;5.45;;
78778;SDS011;68121;52.404;5.318;2023-05-10T08:45:43;11.10;;;5.38;;
78778;SDS011;68121;52.404;5.318;2023-05-10T08:48:13;9.07;;;6.00;;
78778;SDS011;68121;52.404;5.318;2023-05-10T08:50:40;9.82;;;5.53;;
78778;SDS011;68121;52.404;5.318;2023-05-10T08:53:11;10.80;;;5.20;;
78778;SDS011;68121;52.404;5.318;2023-05-10T08:55:39;9.60;;;5.13;;
78778;SDS011;68121;52.404;5.318;2023-05-10T08:58:07;10.90;;;5.22;;
78778;SDS011;68121;52.404;5.318;2023-05-10T09:00:34;10.73;;;5.78;;
78778;SDS011;68121;52.404;5.318;2023-05-10T09:03:03;11.27;;;5.82;;
78778;SDS011;68121;52.404;5.318;2023-05-10T09:05:30;12.90;;;6.00;;
78778;SDS011;68121;52.404;5.318;2023-05-10T09:07:56;9.52;;;4.72;;
78778;SDS011;68121;52.404;5.318;2023-05-10T09:10:22;12.40;;;5.57;;
78778;SDS011;68121;52.404;5.318;2023-05-10T09:12:51;11.00;;;5.45;;
78778;SDS011;68121;52.404;5.318;2023-05-10T09:15:18;10.40;;;5.45;;
78778;SDS011;68121;52.404;5.318;2023-05-10T09:17:45;11.52;;;5.65;;
78778;SDS011;68121;52.404;5.318;2023-05-10T09:20:12;11.30;;;6.88;;
78778;SDS011;68121;52.404;5.318;2023-05-10T09:22:38;13.13;;;7.32;;
78778;SDS011;68121;52.404;5.318;2023-05-10T09:27:36;11.32;;;6.72;;
78778;SDS011;68121;52.404;5.318;2023-05-10T09:30:04;10.43;;;6.18;;
78778;SDS011;68121;52.404;5.318;2023-05-10T09:32:41;11.48;;;6.45;;
78778;SDS011;68121;52.404;5.318;2023-05-10T09:35:19;15.13;;;7.18;;
78778;SDS011;68121;52.404;5.318;2023-05-10T09:37:48;12.15;;;6.70;;
78778;SDS011;68121;52.404;5.318;2023-05-10T09:40:17;12.13;;;6.00;;
78778;SDS011;68121;52.404;5.318;2023-05-10T09:42:54;9.77;;;5.57;;
78778;SDS011;68121;52.404;5.318;2023-05-10T09:45:23;9.90;;;6.28;;
78778;SDS011;68121;52.404;5.318;2023-05-10T09:47:50;8.82;;;5.47;;
78778;SDS011;68121;52.404;5.318;2023-05-10T09:50:16;11.82;;;6.72;;
78778;SDS011;68121;52.404;5.318;2023-05-10T09:52:51;12.05;;;6.95;;
78778;SDS011;68121;52.404;5.318;2023-05-10T09:55:22;11.68;;;7.00;;
78778;SDS011;68121;52.404;5.318;2023-05-10T09:57:57;12.18;;;6.53;;
78778;SDS011;68121;52.404;5.318;2023-05-10T10:00:26;9.90;;;6.55;;
78778;SDS011;68121;52.404;5.318;2023-05-10T10:02:58;9.50;;;6.03;;
78778;SDS011;68121;52.404;5.318;2023-05-10T10:05:29;14.25;;;8.18;;
78778;SDS011;68121;52.404;5.318;2023-05-10T10:07:56;11.68;;;7.90;;
78778;SDS011;68121;52.404;5.318;2023-05-10T10:10:24;14.00;;;8.25;;
78778;SDS011;68121;52.404;5.318;2023-05-10T10:12:51;14.48;;;8.13;;
78778;SDS011;68121;52.404;5.318;2023-05-10T10:15:18;13.60;;;8.02;;
78778;SDS011;68121;52.404;5.318;2023-05-10T10:17:46;14.18;;;8.77;;
78778;SDS011;68121;52.404;5.318;2023-05-10T10:20:13;16.33;;;8.80;;
78778;SDS011;68121;52.404;5.318;2023-05-10T10:22:40;13.80;;;9.25;;
78778;SDS011;68121;52.404;5.318;2023-05-10T10:25:07;11.85;;;8.05;;
78778;SDS011;68121;52.404;5.318;2023-05-10T10:27:43;11.85;;;7.57;;
78778;SDS011;68121;52.404;5.318;2023-05-10T10:35:52;9.82;;;7.00;;
78778;SDS011;68121;52.404;5.318;2023-05-10T10:38:19;9.80;;;6.18;;
78778;SDS011;68121;52.404;5.318;2023-05-10T10:40:46;9.77;;;6.40;;
78778;SDS011;68121;52.404;5.318;2023-05-10T10:43:28;8.00;;;5.60;;
78778;SDS011;68121;52.404;5.318;2023-05-10T10:46:14;11.43;;;5.60;;
78778;SDS011;68121;52.404;5.318;2023-05-10T10:48:49;10.35;;;5.47;;
78778;SDS011;68121;52.404;5.318;2023-05-10T10:51:36;9.40;;;5.68;;
78778;SDS011;68121;52.404;5.318;2023-05-10T10:54:09;9.48;;;5.95;;
78778;SDS011;68121;52.404;5.318;2023-05-10T10:56:36;9.85;;;6.40;;
78778;SDS011;68121;52.404;5.318;2023-05-10T10:59:02;8.65;;;5.75;;
78778;SDS011;68121;52.404;5.318;2023-05-10T11:01:34;8.07;;;5.50;;
78778;SDS011;68121;52.404;5.318;2023-05-10T11:06:36;6.38;;;5.00;;
78778;SDS011;68121;52.404;5.318;2023-05-10T11:09:06;10.30;;;5.40;;
78778;SDS011;68121;52.404;5.318;2023-05-10T11:11:34;6.72;;;5.20;;
78778;SDS011;68121;52.404;5.318;2023-05-10T11:14:04;7.32;;;4.47;;
78778;SDS011;68121;52.404;5.318;2023-05-10T11:16:41;7.50;;;4.60;;
78778;SDS011;68121;52.404;5.318;2023-05-10T11:19:10;9.25;;;5.18;;
78778;SDS011;68121;52.404;5.318;2023-05-10T11:21:45;8.20;;;4.50;;
78778;SDS011;68121;52.404;5.318;2023-05-10T11:24:17;8.80;;;5.25;;
78778;SDS011;68121;52.404;5.318;2023-05-10T11:26:45;8.00;;;5.30;;
78778;SDS011;68121;52.404;5.318;2023-05-10T11:29:12;6.70;;;4.78;;
78778;SDS011;68121;52.404;5.318;2023-05-10T11:31:42;6.95;;;4.72;;
78778;SDS011;68121;52.404;5.318;2023-05-10T11:34:10;7.13;;;4.90;;
78778;SDS011;68121;52.404;5.318;2023-05-10T11:36:36;8.25;;;4.00;;
78778;SDS011;68121;52.404;5.318;2023-05-10T11:39:03;6.88;;;4.25;;
78778;SDS011;68121;52.404;5.318;2023-05-10T11:41:30;7.03;;;4.60;;
78778;SDS011;68121;52.404;5.318;2023-05-10T11:43:57;9.38;;;4.60;;
78778;SDS011;68121;52.404;5.318;2023-05-10T11:46:26;6.03;;;4.00;;
78778;SDS011;68121;52.404;5.318;2023-05-10T11:48:53;7.15;;;4.47;;
78778;SDS011;68121;52.404;5.318;2023-05-10T11:51:23;8.00;;;4.97;;
78778;SDS011;68121;52.404;5.318;2023-05-10T11:53:52;6.88;;;4.13;;
78778;SDS011;68121;52.404;5.318;2023-05-10T11:56:19;9.55;;;4.50;;
78778;SDS011;68121;52.404;5.318;2023-05-10T11:58:51;8.18;;;4.60;;
78778;SDS011;68121;52.404;5.318;2023-05-10T12:01:21;8.30;;;4.80;;
78778;SDS011;68121;52.404;5.318;2023-05-10T12:03:48;7.10;;;4.63;;
78778;SDS011;68121;52.404;5.318;2023-05-10T12:06:17;10.80;;;5.00;;
78778;SDS011;68121;52.404;5.318;2023-05-10T12:08:44;7.38;;;4.72;;
78778;SDS011;68121;52.404;5.318;2023-05-10T12:11:12;9.63;;;4.28;;
78778;SDS011;68121;52.404;5.318;2023-05-10T12:13:43;8.43;;;5.07;;
78778;SDS011;68121;52.404;5.318;2023-05-10T12:16:12;9.40;;;5.03;;
78778;SDS011;68121;52.404;5.318;2023-05-10T12:18:52;9.23;;;5.05;;
78778;SDS011;68121;52.404;5.318;2023-05-10T12:21:20;10.98;;;5.65;;
78778;SDS011;68121;52.404;5.318;2023-05-10T12:23:48;8.30;;;5.30;;
78778;SDS011;68121;52.404;5.318;2023-05-10T12:26:18;11.82;;;6.07;;
78778;SDS011;68121;52.404;5.318;2023-05-10T12:28:47;9.20;;;5.25;;
78778;SDS011;68121;52.404;5.318;2023-05-10T12:31:14;11.32;;;5.40;;
78778;SDS011;68121;52.404;5.318;2023-05-10T12:33:41;8.23;;;5.38;;
78778;SDS011;68121;52.404;5.318;2023-05-10T12:36:22;7.80;;;5.55;;
78778;SDS011;68121;52.404;5.318;2023-05-10T12:38:49;9.65;;;5.88;;
78778;SDS011;68121;52.404;5.318;2023-05-10T12:41:16;11.68;;;5.07;;
78778;SDS011;68121;52.404;5.318;2023-05-10T12:43:43;9.52;;;5.97;;
78778;SDS011;68121;52.404;5.318;2023-05-10T12:46:12;10.27;;;5.13;;
78778;SDS011;68121;52.404;5.318;2023-05-10T12:48:40;9.23;;;5.05;;
78778;SDS011;68121;52.404;5.318;2023-05-10T12:51:07;9.75;;;5.25;;
78778;SDS011;68121;52.404;5.318;2023-05-10T12:53:42;10.07;;;4.97;;
78778;SDS011;68121;52.404;5.318;2023-05-10T12:56:11;8.07;;;4.25;;
78778;SDS011;68121;52.404;5.318;2023-05-10T12:58:37;6.10;;;3.55;;
78778;SDS011;68121;52.404;5.318;2023-05-10T13:01:04;5.05;;;3.20;;
78778;SDS011;68121;52.404;5.318;2023-05-10T13:03:30;7.75;;;3.60;;
78778;SDS011;68121;52.404;5.318;2023-05-10T13:05:56;4.22;;;3.03;;
78778;SDS011;68121;52.404;5.318;2023-05-10T13:08:22;4.72;;;3.58;;
78778;SDS011;68121;52.404;5.318;2023-05-10T13:10:49;3.92;;;2.65;;
78778;SDS011;68121;52.404;5.318;2023-05-10T13:13:15;4.90;;;3.30;;
78778;SDS011;68121;52.404;5.318;2023-05-10T13:15:41;6.47;;;3.40;;
78778;SDS011;68121;52.404;5.318;2023-05-10T13:18:07;6.97;;;4.13;;
78778;SDS011;68121;52.404;5.318;2023-05-10T13:20:33;8.77;;;4.10;;
78778;SDS011;68121;52.404;5.318;2023-05-10T13:22:59;8.18;;;4.07;;
78778;SDS011;68121;52.404;5.318;2023-05-10T13:25:25;7.72;;;4.57;;
78778;SDS011;68121;52.404;5.318;2023-05-10T13:27:51;6.32;;;4.07;;
78778;SDS011;68121;52.404;5.318;2023-05-10T13:30:20;6.35;;;4.20;;
78778;SDS011;68121;52.404;5.318;2023-05-10T13:32:46;10.80;;;5.00;;
78778;SDS011;68121;52.404;5.318;2023-05-10T13:35:12;6.95;;;4.70;;
78778;SDS011;68121;52.404;5.318;2023-05-10T13:37:38;7.82;;;5.53;;
78778;SDS011;68121;52.404;5.318;2023-05-10T13:40:04;9.43;;;5.18;;
78778;SDS011;68121;52.404;5.318;2023-05-10T13:42:31;10.20;;;6.70;;
78778;SDS011;68121;52.404;5.318;2023-05-10T13:44:59;8.65;;;5.93;;
78778;SDS011;68121;52.404;5.318;2023-05-10T13:47:27;10.43;;;6.07;;
78778;SDS011;68121;52.404;5.318;2023-05-10T13:49:53;11.23;;;5.82;;
78778;SDS011;68121;52.404;5.318;2023-05-10T13:52:19;10.27;;;5.57;;
78778;SDS011;68121;52.404;5.318;2023-05-10T13:54:45;10.20;;;5.88;;
78778;SDS011;68121;52.404;5.318;2023-05-10T13:57:11;13.75;;;6.38;;
78778;SDS011;68121;52.404;5.318;2023-05-10T13:59:39;11.93;;;5.75;;
78778;SDS011;68121;52.404;5.318;2023-05-10T14:02:05;11.82;;;5.88;;
78778;SDS011;68121;52.404;5.318;2023-05-10T14:04:32;9.68;;;6.45;;
78778;SDS011;68121;52.404;5.318;2023-05-10T14:06:58;10.55;;;5.85;;
78778;SDS011;68121;52.404;5.318;2023-05-10T14:09:24;10.00;;;5.05;;
78778;SDS011;68121;52.404;5.318;2023-05-10T14:11:50;8.20;;;5.00;;
78778;SDS011;68121;52.404;5.318;2023-05-10T14:14:16;8.90;;;5.03;;
78778;SDS011;68121;52.404;5.318;2023-05-10T14:16:43;11.35;;;5.10;;
78778;SDS011;68121;52.404;5.318;2023-05-10T14:19:09;11.00;;;6.07;;
78778;SDS011;68121;52.404;5.318;2023-05-10T14:21:36;10.73;;;5.15;;
78778;SDS011;68121;52.404;5.318;2023-05-10T14:24:03;10.05;;;5.80;;
78778;SDS011;68121;52.404;5.318;2023-05-10T14:26:30;13.57;;;6.28;;
78778;SDS011;68121;52.404;5.318;2023-05-10T14:28:56;11.48;;;5.22;;
78778;SDS011;68121;52.404;5.318;2023-05-10T14:31:22;12.38;;;6.47;;
78778;SDS011;68121;52.404;5.318;2023-05-10T14:33:50;10.15;;;5.65;;
78778;SDS011;68121;52.404;5.318;2023-05-10T14:36:16;10.88;;;5.90;;
78778;SDS011;68121;52.404;5.318;2023-05-10T14:38:43;14.23;;;6.40;;
78778;SDS011;68121;52.404;5.318;2023-05-10T14:41:09;11.88;;;6.18;;
78778;SDS011;68121;52.404;5.318;2023-05-10T14:43:39;10.90;;;4.95;;
78778;SDS011;68121;52.404;5.318;2023-05-10T14:46:05;10.68;;;5.45;;
78778;SDS011;68121;52.404;5.318;2023-05-10T14:48:31;8.55;;;5.22;;
78778;SDS011;68121;52.404;5.318;2023-05-10T14:50:57;8.65;;;4.95;;
78778;SDS011;68121;52.404;5.318;2023-05-10T14:53:23;6.60;;;3.92;;
78778;SDS011;68121;52.404;5.318;2023-05-10T14:55:49;7.63;;;3.80;;
78778;SDS011;68121;52.404;5.318;2023-05-10T14:58:15;6.00;;;4.32;;
78778;SDS011;68121;52.404;5.318;2023-05-10T15:00:42;5.60;;;3.50;;
78778;SDS011;68121;52.404;5.318;2023-05-10T15:03:08;7.10;;;4.10;;
78778;SDS011;68121;52.404;5.318;2023-05-10T15:05:35;10.88;;;5.97;;
78778;SDS011;68121;52.404;5.318;2023-05-10T15:08:02;12.13;;;5.88;;
78778;SDS011;68121;52.404;5.318;2023-05-10T15:10:30;9.98;;;5.88;;